sensor_id;sensor_type;location;lat;lon;timestamp;temperature;humidity
506;DHT22;551;48.524;9.056;2023-03-23T00:01:05;13.10;1.00
506;DHT22;551;48.524;9.056;2023-03-23T00:03:31;13.10;1.00
506;DHT22;551;48.524;9.056;2023-03-23T00:05:58;13.20;1.00
506;DHT22;551;48.524;9.056;2023-03-23T00:08:30;13.20;1.00
506;DHT22;551;48.524;9.056;2023-03-23T00:10:56;13.20;1.00
506;DHT22;551;48.524;9.056;2023-03-23T00:13:28;13.10;1.00
506;DHT22;551;48.524;9.056;2023-03-23T00:15:54;13.10;1.00
506;DHT22;551;48.524;9.056;2023-03-23T00:18:20;13.20;1.00
506;DHT22;551;48.524;9.056;2023-03-23T00:20:49;13.20;1.00
506;DHT22;551;48.524;9.056;2023-03-23T00:23:16;13.10;1.00
506;DHT22;551;48.524;9.056;2023-03-23T00:25:46;13.20;1.00
506;DHT22;551;48.524;9.056;2023-03-23T00:28:12;13.10;1.00
506;DHT22;551;48.524;9.056;2023-03-23T00:30:38;13.10;1.00
506;DHT22;551;48.524;9.056;2023-03-23T00:33:04;13.10;1.00
506;DHT22;551;48.524;9.056;2023-03-23T00:35:29;13.10;1.00
506;DHT22;551;48.524;9.056;2023-03-23T00:37:56;13.10;1.00
506;DHT22;551;48.524;9.056;2023-03-23T00:40:24;13.10;1.00
506;DHT22;551;48.524;9.056;2023-03-23T00:42:49;13.10;1.00
506;DHT22;551;48.524;9.056;2023-03-23T00:45:15;13.10;1.00
506;DHT22;551;48.524;9.056;2023-03-23T00:47:41;13.10;1.00
506;DHT22;551;48.524;9.056;2023-03-23T00:50:12;13.10;1.00
506;DHT22;551;48.524;9.056;2023-03-23T00:52:39;13.10;1.00
506;DHT22;551;48.524;9.056;2023-03-23T00:55:06;13.10;1.00
506;DHT22;551;48.524;9.056;2023-03-23T00:57:32;13.10;1.00
506;DHT22;551;48.524;9.056;2023-03-23T00:59:57;13.10;1.00
506;DHT22;551;48.524;9.056;2023-03-23T01:02:23;13.10;1.00
506;DHT22;551;48.524;9.056;2023-03-23T01:04:50;13.10;1.00
506;DHT22;551;48.524;9.056;2023-03-23T01:07:18;13.00;1.00
506;DHT22;551;48.524;9.056;2023-03-23T01:09:43;13.00;1.00
506;DHT22;551;48.524;9.056;2023-03-23T01:12:12;13.10;1.00
506;DHT22;551;48.524;9.056;2023-03-23T01:14:37;12.90;1.00
506;DHT22;551;48.524;9.056;2023-03-23T01:17:03;13.00;1.00
506;DHT22;551;48.524;9.056;2023-03-23T01:19:29;13.00;1.00
506;DHT22;551;48.524;9.056;2023-03-23T01:21:55;12.90;1.00
506;DHT22;551;48.524;9.056;2023-03-23T01:24:20;12.90;1.00
506;DHT22;551;48.524;9.056;2023-03-23T01:26:46;12.90;1.00
506;DHT22;551;48.524;9.056;2023-03-23T01:29:11;12.90;1.00
506;DHT22;551;48.524;9.056;2023-03-23T01:31:37;12.90;1.00
506;DHT22;551;48.524;9.056;2023-03-23T01:34:03;12.90;1.00
506;DHT22;551;48.524;9.056;2023-03-23T01:36:30;12.90;1.00
506;DHT22;551;48.524;9.056;2023-03-23T01:38:59;12.90;1.00
506;DHT22;551;48.524;9.056;2023-03-23T01:41:26;12.90;1.00
506;DHT22;551;48.524;9.056;2023-03-23T01:44:06;12.90;1.00
506;DHT22;551;48.524;9.056;2023-03-23T01:46:34;12.90;1.00
506;DHT22;551;48.524;9.056;2023-03-23T01:49:25;12.90;1.00
506;DHT22;551;48.524;9.056;2023-03-23T01:52:11;12.80;1.00
506;DHT22;551;48.524;9.056;2023-03-23T01:54:43;12.80;1.00
506;DHT22;551;48.524;9.056;2023-03-23T01:57:13;12.80;1.00
506;DHT22;551;48.524;9.056;2023-03-23T01:59:43;12.80;1.00
506;DHT22;551;48.524;9.056;2023-03-23T02:02:12;12.80;1.00
506;DHT22;551;48.524;9.056;2023-03-23T02:04:39;12.80;1.00
506;DHT22;551;48.524;9.056;2023-03-23T02:07:06;12.80;1.00
506;DHT22;551;48.524;9.056;2023-03-23T02:09:32;12.80;1.00
506;DHT22;551;48.524;9.056;2023-03-23T02:11:58;12.80;1.00
506;DHT22;551;48.524;9.056;2023-03-23T02:14:24;12.80;1.00
506;DHT22;551;48.524;9.056;2023-03-23T02:17:18;12.80;1.00
506;DHT22;551;48.524;9.056;2023-03-23T02:33:39;12.70;1.00
506;DHT22;551;48.524;9.056;2023-03-23T02:39:15;12.70;1.00
506;DHT22;551;48.524;9.056;2023-03-23T02:41:47;12.70;1.00
506;DHT22;551;48.524;9.056;2023-03-23T02:44:15;12.70;1.00
506;DHT22;551;48.524;9.056;2023-03-23T02:46:44;12.70;1.00
506;DHT22;551;48.524;9.056;2023-03-23T02:49:12;12.70;1.00
506;DHT22;551;48.524;9.056;2023-03-23T02:51:39;12.70;1.00
506;DHT22;551;48.524;9.056;2023-03-23T02:54:07;12.70;1.00
506;DHT22;551;48.524;9.056;2023-03-23T02:56:33;12.70;1.00
506;DHT22;551;48.524;9.056;2023-03-23T02:58:59;12.70;1.00
506;DHT22;551;48.524;9.056;2023-03-23T03:03:52;12.60;1.00
506;DHT22;551;48.524;9.056;2023-03-23T03:06:27;12.60;1.00
506;DHT22;551;48.524;9.056;2023-03-23T03:09:34;12.50;1.00
506;DHT22;551;48.524;9.056;2023-03-23T03:12:10;12.50;1.00
506;DHT22;551;48.524;9.056;2023-03-23T03:14:44;12.60;1.00
506;DHT22;551;48.524;9.056;2023-03-23T03:17:23;12.60;1.00
506;DHT22;551;48.524;9.056;2023-03-23T03:19:52;12.50;1.00
506;DHT22;551;48.524;9.056;2023-03-23T03:22:21;12.50;1.00
506;DHT22;551;48.524;9.056;2023-03-23T03:24:49;12.50;1.00
506;DHT22;551;48.524;9.056;2023-03-23T03:27:17;12.50;1.00
506;DHT22;551;48.524;9.056;2023-03-23T03:29:47;12.50;1.00
506;DHT22;551;48.524;9.056;2023-03-23T03:32:20;12.50;1.00
506;DHT22;551;48.524;9.056;2023-03-23T03:34:48;12.50;1.00
506;DHT22;551;48.524;9.056;2023-03-23T03:37:16;12.40;1.00
506;DHT22;551;48.524;9.056;2023-03-23T03:39:42;12.40;1.00
506;DHT22;551;48.524;9.056;2023-03-23T03:42:07;12.50;1.00
506;DHT22;551;48.524;9.056;2023-03-23T03:44:33;12.50;1.00
506;DHT22;551;48.524;9.056;2023-03-23T03:46:59;12.50;1.00
506;DHT22;551;48.524;9.056;2023-03-23T03:49:25;12.60;1.00
506;DHT22;551;48.524;9.056;2023-03-23T03:51:51;12.50;1.00
506;DHT22;551;48.524;9.056;2023-03-23T03:54:16;12.50;1.00
506;DHT22;551;48.524;9.056;2023-03-23T03:56:42;12.60;1.00
506;DHT22;551;48.524;9.056;2023-03-23T03:59:09;12.60;1.00
506;DHT22;551;48.524;9.056;2023-03-23T04:01:36;12.60;1.00
506;DHT22;551;48.524;9.056;2023-03-23T04:04:03;12.60;1.00
506;DHT22;551;48.524;9.056;2023-03-23T04:06:30;12.70;1.00
506;DHT22;551;48.524;9.056;2023-03-23T04:08:58;12.60;1.00
506;DHT22;551;48.524;9.056;2023-03-23T04:11:25;12.60;1.00
506;DHT22;551;48.524;9.056;2023-03-23T04:13:51;12.70;1.00
506;DHT22;551;48.524;9.056;2023-03-23T04:16:17;12.70;1.00
506;DHT22;551;48.524;9.056;2023-03-23T04:18:43;12.60;1.00
506;DHT22;551;48.524;9.056;2023-03-23T04:21:09;12.70;1.00
506;DHT22;551;48.524;9.056;2023-03-23T04:23:35;12.70;1.00
506;DHT22;551;48.524;9.056;2023-03-23T04:26:01;12.70;1.00
506;DHT22;551;48.524;9.056;2023-03-23T04:28:28;12.60;1.00
506;DHT22;551;48.524;9.056;2023-03-23T04:30:54;12.60;1.00
506;DHT22;551;48.524;9.056;2023-03-23T04:33:21;12.70;1.00
506;DHT22;551;48.524;9.056;2023-03-23T04:35:47;12.70;1.00
506;DHT22;551;48.524;9.056;2023-03-23T04:38:17;12.70;1.00
506;DHT22;551;48.524;9.056;2023-03-23T04:40:45;12.80;1.00
506;DHT22;551;48.524;9.056;2023-03-23T04:43:11;12.80;1.00
506;DHT22;551;48.524;9.056;2023-03-23T04:45:38;12.70;1.00
506;DHT22;551;48.524;9.056;2023-03-23T04:48:07;12.70;1.00
506;DHT22;551;48.524;9.056;2023-03-23T04:50:33;12.80;1.00
506;DHT22;551;48.524;9.056;2023-03-23T04:53:00;12.80;1.00
506;DHT22;551;48.524;9.056;2023-03-23T04:55:34;12.90;1.00
506;DHT22;551;48.524;9.056;2023-03-23T04:58:03;12.90;1.00
506;DHT22;551;48.524;9.056;2023-03-23T05:00:31;12.90;1.00
506;DHT22;551;48.524;9.056;2023-03-23T05:02:57;12.90;1.00
506;DHT22;551;48.524;9.056;2023-03-23T05:05:23;12.90;1.00
506;DHT22;551;48.524;9.056;2023-03-23T05:07:50;12.90;1.00
506;DHT22;551;48.524;9.056;2023-03-23T05:10:16;12.90;1.00
506;DHT22;551;48.524;9.056;2023-03-23T05:12:43;12.90;1.00
506;DHT22;551;48.524;9.056;2023-03-23T05:15:11;12.90;1.00
506;DHT22;551;48.524;9.056;2023-03-23T05:17:37;12.90;1.00
506;DHT22;551;48.524;9.056;2023-03-23T05:20:05;12.90;1.00
506;DHT22;551;48.524;9.056;2023-03-23T05:22:33;12.90;1.00
506;DHT22;551;48.524;9.056;2023-03-23T05:24:59;12.90;1.00
506;DHT22;551;48.524;9.056;2023-03-23T05:27:28;12.90;1.00
506;DHT22;551;48.524;9.056;2023-03-23T05:29:58;12.90;1.00
506;DHT22;551;48.524;9.056;2023-03-23T05:32:27;12.90;1.00
506;DHT22;551;48.524;9.056;2023-03-23T05:35:00;13.00;1.00
506;DHT22;551;48.524;9.056;2023-03-23T05:37:27;13.00;1.00
506;DHT22;551;48.524;9.056;2023-03-23T05:39:54;13.00;1.00
506;DHT22;551;48.524;9.056;2023-03-23T05:42:21;13.00;1.00
506;DHT22;551;48.524;9.056;2023-03-23T05:44:47;13.10;1.00
506;DHT22;551;48.524;9.056;2023-03-23T05:47:13;13.10;1.00
506;DHT22;551;48.524;9.056;2023-03-23T05:49:39;13.10;1.00
506;DHT22;551;48.524;9.056;2023-03-23T05:52:04;13.10;1.00
506;DHT22;551;48.524;9.056;2023-03-23T05:54:30;13.10;1.00
506;DHT22;551;48.524;9.056;2023-03-23T05:56:55;13.20;1.00
506;DHT22;551;48.524;9.056;2023-03-23T05:59:21;13.20;1.00
506;DHT22;551;48.524;9.056;2023-03-23T06:01:46;13.30;1.00
506;DHT22;551;48.524;9.056;2023-03-23T06:04:12;13.30;1.00
506;DHT22;551;48.524;9.056;2023-03-23T06:06:39;13.30;1.00
506;DHT22;551;48.524;9.056;2023-03-23T06:09:06;13.40;1.00
506;DHT22;551;48.524;9.056;2023-03-23T06:11:32;13.40;1.00
506;DHT22;551;48.524;9.056;2023-03-23T06:13:59;13.50;1.00
506;DHT22;551;48.524;9.056;2023-03-23T06:16:24;13.60;1.00
506;DHT22;551;48.524;9.056;2023-03-23T06:18:50;13.70;1.00
506;DHT22;551;48.524;9.056;2023-03-23T06:21:16;13.70;1.00
506;DHT22;551;48.524;9.056;2023-03-23T06:23:44;13.80;1.00
506;DHT22;551;48.524;9.056;2023-03-23T06:26:13;13.90;1.00
506;DHT22;551;48.524;9.056;2023-03-23T06:28:39;14.10;1.00
506;DHT22;551;48.524;9.056;2023-03-23T06:31:06;14.20;1.00
506;DHT22;551;48.524;9.056;2023-03-23T06:33:33;14.30;1.00
506;DHT22;551;48.524;9.056;2023-03-23T06:36:00;14.50;1.00
506;DHT22;551;48.524;9.056;2023-03-23T06:38:25;14.60;1.00
506;DHT22;551;48.524;9.056;2023-03-23T06:40:52;14.70;1.00
506;DHT22;551;48.524;9.056;2023-03-23T06:43:18;14.80;1.00
506;DHT22;551;48.524;9.056;2023-03-23T06:45:44;14.80;1.00
506;DHT22;551;48.524;9.056;2023-03-23T06:48:10;14.90;1.00
506;DHT22;551;48.524;9.056;2023-03-23T06:50:35;14.90;1.00
506;DHT22;551;48.524;9.056;2023-03-23T06:53:01;15.00;1.00
506;DHT22;551;48.524;9.056;2023-03-23T06:55:26;15.10;1.00
506;DHT22;551;48.524;9.056;2023-03-23T06:57:52;15.10;1.00
506;DHT22;551;48.524;9.056;2023-03-23T07:00:17;15.20;1.00
506;DHT22;551;48.524;9.056;2023-03-23T07:02:43;15.40;1.00
506;DHT22;551;48.524;9.056;2023-03-23T07:05:10;15.50;1.00
506;DHT22;551;48.524;9.056;2023-03-23T07:07:39;15.60;1.00
506;DHT22;551;48.524;9.056;2023-03-23T07:10:07;15.70;1.00
506;DHT22;551;48.524;9.056;2023-03-23T07:12:34;15.80;1.00
506;DHT22;551;48.524;9.056;2023-03-23T07:15:01;15.80;1.00
506;DHT22;551;48.524;9.056;2023-03-23T07:17:28;15.90;1.00
506;DHT22;551;48.524;9.056;2023-03-23T07:19:53;16.00;1.00
506;DHT22;551;48.524;9.056;2023-03-23T07:22:19;16.10;1.00
506;DHT22;551;48.524;9.056;2023-03-23T07:24:45;16.20;1.00
506;DHT22;551;48.524;9.056;2023-03-23T07:27:10;16.30;1.00
506;DHT22;551;48.524;9.056;2023-03-23T07:29:36;16.30;1.00
506;DHT22;551;48.524;9.056;2023-03-23T07:32:04;16.20;1.00
506;DHT22;551;48.524;9.056;2023-03-23T07:34:30;16.10;1.00
506;DHT22;551;48.524;9.056;2023-03-23T07:36:57;16.20;1.00
506;DHT22;551;48.524;9.056;2023-03-23T07:39:22;16.10;1.00
506;DHT22;551;48.524;9.056;2023-03-23T07:41:50;16.10;1.00
506;DHT22;551;48.524;9.056;2023-03-23T07:44:16;16.10;1.00
506;DHT22;551;48.524;9.056;2023-03-23T07:46:41;16.10;1.00
506;DHT22;551;48.524;9.056;2023-03-23T07:49:07;16.20;1.00
506;DHT22;551;48.524;9.056;2023-03-23T07:51:34;16.30;1.00
506;DHT22;551;48.524;9.056;2023-03-23T07:54:00;16.40;1.00
506;DHT22;551;48.524;9.056;2023-03-23T07:56:29;16.60;1.00
506;DHT22;551;48.524;9.056;2023-03-23T07:58:55;16.80;1.00
506;DHT22;551;48.524;9.056;2023-03-23T08:01:20;17.00;1.00
506;DHT22;551;48.524;9.056;2023-03-23T08:03:46;17.30;1.00
506;DHT22;551;48.524;9.056;2023-03-23T08:06:12;17.60;1.00
506;DHT22;551;48.524;9.056;2023-03-23T08:08:37;18.10;1.00
506;DHT22;551;48.524;9.056;2023-03-23T08:11:05;18.60;1.00
506;DHT22;551;48.524;9.056;2023-03-23T08:13:31;19.10;1.00
506;DHT22;551;48.524;9.056;2023-03-23T08:15:59;19.40;1.00
506;DHT22;551;48.524;9.056;2023-03-23T08:18:25;19.50;1.00
506;DHT22;551;48.524;9.056;2023-03-23T08:20:51;19.20;1.00
506;DHT22;551;48.524;9.056;2023-03-23T08:23:18;19.10;1.00
506;DHT22;551;48.524;9.056;2023-03-23T08:25:43;19.30;1.00
506;DHT22;551;48.524;9.056;2023-03-23T08:28:09;19.30;1.00
506;DHT22;551;48.524;9.056;2023-03-23T08:30:35;18.90;1.00
506;DHT22;551;48.524;9.056;2023-03-23T08:33:03;18.90;1.00
506;DHT22;551;48.524;9.056;2023-03-23T08:35:30;19.30;1.00
506;DHT22;551;48.524;9.056;2023-03-23T08:37:55;19.40;1.00
506;DHT22;551;48.524;9.056;2023-03-23T08:40:23;19.30;1.00
506;DHT22;551;48.524;9.056;2023-03-23T08:42:51;19.30;1.00
506;DHT22;551;48.524;9.056;2023-03-23T08:45:20;19.00;1.00
506;DHT22;551;48.524;9.056;2023-03-23T08:47:46;18.70;1.00
506;DHT22;551;48.524;9.056;2023-03-23T08:50:18;18.40;1.00
506;DHT22;551;48.524;9.056;2023-03-23T08:52:45;18.20;1.00
506;DHT22;551;48.524;9.056;2023-03-23T08:55:11;18.10;1.00
506;DHT22;551;48.524;9.056;2023-03-23T08:57:37;18.10;1.00
506;DHT22;551;48.524;9.056;2023-03-23T09:00:04;18.20;1.00
506;DHT22;551;48.524;9.056;2023-03-23T09:02:41;18.30;1.00
506;DHT22;551;48.524;9.056;2023-03-23T09:05:08;18.30;1.00
506;DHT22;551;48.524;9.056;2023-03-23T09:07:35;18.30;1.00
506;DHT22;551;48.524;9.056;2023-03-23T09:10:01;18.40;1.00
506;DHT22;551;48.524;9.056;2023-03-23T09:12:27;18.50;1.00
506;DHT22;551;48.524;9.056;2023-03-23T09:14:53;18.50;1.00
506;DHT22;551;48.524;9.056;2023-03-23T09:17:18;18.50;1.00
506;DHT22;551;48.524;9.056;2023-03-23T09:19:44;18.70;1.00
506;DHT22;551;48.524;9.056;2023-03-23T09:22:10;18.80;1.00
506;DHT22;551;48.524;9.056;2023-03-23T09:24:35;18.90;1.00
506;DHT22;551;48.524;9.056;2023-03-23T09:27:01;19.00;1.00
506;DHT22;551;48.524;9.056;2023-03-23T09:29:27;19.20;1.00
506;DHT22;551;48.524;9.056;2023-03-23T09:31:53;19.30;1.00
506;DHT22;551;48.524;9.056;2023-03-23T09:34:19;19.50;1.00
506;DHT22;551;48.524;9.056;2023-03-23T09:36:45;19.50;1.00
506;DHT22;551;48.524;9.056;2023-03-23T09:39:11;19.50;1.00
506;DHT22;551;48.524;9.056;2023-03-23T09:41:51;19.50;1.00
506;DHT22;551;48.524;9.056;2023-03-23T09:52:43;19.60;1.00
506;DHT22;551;48.524;9.056;2023-03-23T09:55:13;20.10;1.00
506;DHT22;551;48.524;9.056;2023-03-23T09:57:58;20.60;1.00
506;DHT22;551;48.524;9.056;2023-03-23T10:00:30;21.00;1.00
506;DHT22;551;48.524;9.056;2023-03-23T10:03:04;20.80;1.00
506;DHT22;551;48.524;9.056;2023-03-23T10:05:41;20.80;1.00
506;DHT22;551;48.524;9.056;2023-03-23T10:08:26;21.40;1.00
506;DHT22;551;48.524;9.056;2023-03-23T10:11:13;22.00;1.00
506;DHT22;551;48.524;9.056;2023-03-23T10:16:48;22.10;1.00
506;DHT22;551;48.524;9.056;2023-03-23T10:19:46;22.10;1.00
506;DHT22;551;48.524;9.056;2023-03-23T10:22:13;22.10;1.00
506;DHT22;551;48.524;9.056;2023-03-23T10:24:49;22.10;1.00
506;DHT22;551;48.524;9.056;2023-03-23T10:27:34;21.90;1.00
506;DHT22;551;48.524;9.056;2023-03-23T10:30:29;21.70;1.00
506;DHT22;551;48.524;9.056;2023-03-23T10:38:23;20.80;1.00
506;DHT22;551;48.524;9.056;2023-03-23T10:40:58;20.60;1.00
506;DHT22;551;48.524;9.056;2023-03-23T10:43:25;20.40;1.00
506;DHT22;551;48.524;9.056;2023-03-23T10:45:57;20.20;1.00
506;DHT22;551;48.524;9.056;2023-03-23T10:48:30;20.00;1.00
506;DHT22;551;48.524;9.056;2023-03-23T10:51:00;19.80;1.00
506;DHT22;551;48.524;9.056;2023-03-23T10:53:44;19.90;1.00
506;DHT22;551;48.524;9.056;2023-03-23T10:56:36;19.90;1.00
506;DHT22;551;48.524;9.056;2023-03-23T10:59:26;20.00;1.00
506;DHT22;551;48.524;9.056;2023-03-23T11:01:55;20.10;1.00
506;DHT22;551;48.524;9.056;2023-03-23T11:04:22;20.10;1.00
506;DHT22;551;48.524;9.056;2023-03-23T11:06:54;20.40;1.00
506;DHT22;551;48.524;9.056;2023-03-23T11:09:37;20.50;1.00
506;DHT22;551;48.524;9.056;2023-03-23T11:12:03;20.60;1.00
506;DHT22;551;48.524;9.056;2023-03-23T11:14:34;20.70;1.00
506;DHT22;551;48.524;9.056;2023-03-23T11:17:02;20.70;1.00
506;DHT22;551;48.524;9.056;2023-03-23T11:19:33;20.70;1.00
506;DHT22;551;48.524;9.056;2023-03-23T11:24:37;20.40;1.00
506;DHT22;551;48.524;9.056;2023-03-23T11:27:06;20.40;1.00
506;DHT22;551;48.524;9.056;2023-03-23T11:29:34;20.50;1.00
506;DHT22;551;48.524;9.056;2023-03-23T11:34:32;20.70;1.00
506;DHT22;551;48.524;9.056;2023-03-23T11:39:56;20.70;1.00
506;DHT22;551;48.524;9.056;2023-03-23T11:45:16;21.00;1.00
506;DHT22;551;48.524;9.056;2023-03-23T11:51:06;21.50;1.00
506;DHT22;551;48.524;9.056;2023-03-23T11:56:41;21.60;1.00
506;DHT22;551;48.524;9.056;2023-03-23T11:59:16;21.60;1.00
506;DHT22;551;48.524;9.056;2023-03-23T12:01:58;21.50;1.00
506;DHT22;551;48.524;9.056;2023-03-23T12:07:15;21.60;1.00
506;DHT22;551;48.524;9.056;2023-03-23T12:20:43;21.40;1.00
506;DHT22;551;48.524;9.056;2023-03-23T12:26:13;21.20;1.00
506;DHT22;551;48.524;9.056;2023-03-23T12:33:53;21.00;1.00
506;DHT22;551;48.524;9.056;2023-03-23T12:42:28;20.60;1.00
506;DHT22;551;48.524;9.056;2023-03-23T12:47:37;20.30;1.00
506;DHT22;551;48.524;9.056;2023-03-23T12:50:15;20.00;1.00
506;DHT22;551;48.524;9.056;2023-03-23T12:55:34;19.70;1.00
506;DHT22;551;48.524;9.056;2023-03-23T12:58:14;19.70;1.00
506;DHT22;551;48.524;9.056;2023-03-23T13:01:11;19.80;1.00
506;DHT22;551;48.524;9.056;2023-03-23T13:11:42;20.10;1.00
506;DHT22;551;48.524;9.056;2023-03-23T13:22:44;20.20;1.00
506;DHT22;551;48.524;9.056;2023-03-23T13:25:38;20.50;1.00
506;DHT22;551;48.524;9.056;2023-03-23T13:28:20;20.70;1.00
506;DHT22;551;48.524;9.056;2023-03-23T13:30:56;20.80;1.00
506;DHT22;551;48.524;9.056;2023-03-23T13:33:22;20.80;1.00
506;DHT22;551;48.524;9.056;2023-03-23T13:35:48;20.80;1.00
506;DHT22;551;48.524;9.056;2023-03-23T13:38:23;20.90;1.00
506;DHT22;551;48.524;9.056;2023-03-23T13:40:50;20.80;1.00
506;DHT22;551;48.524;9.056;2023-03-23T13:43:29;20.70;1.00
506;DHT22;551;48.524;9.056;2023-03-23T13:46:27;20.60;1.00
506;DHT22;551;48.524;9.056;2023-03-23T13:49:18;20.50;1.00
506;DHT22;551;48.524;9.056;2023-03-23T13:56:59;20.40;1.00
506;DHT22;551;48.524;9.056;2023-03-23T13:59:49;20.30;1.00
506;DHT22;551;48.524;9.056;2023-03-23T14:02:46;20.10;1.00
506;DHT22;551;48.524;9.056;2023-03-23T14:08:36;19.80;1.00
506;DHT22;551;48.524;9.056;2023-03-23T14:10:54;19.60;1.00
506;DHT22;551;48.524;9.056;2023-03-23T14:13:38;19.60;1.00
506;DHT22;551;48.524;9.056;2023-03-23T14:16:18;19.50;1.00
506;DHT22;551;48.524;9.056;2023-03-23T14:18:57;19.50;1.00
506;DHT22;551;48.524;9.056;2023-03-23T14:24:17;19.30;1.00
506;DHT22;551;48.524;9.056;2023-03-23T14:26:44;19.40;1.00
506;DHT22;551;48.524;9.056;2023-03-23T14:29:13;19.50;1.00
506;DHT22;551;48.524;9.056;2023-03-23T14:31:40;19.50;1.00
506;DHT22;551;48.524;9.056;2023-03-23T14:34:14;19.50;1.00
506;DHT22;551;48.524;9.056;2023-03-23T14:36:41;19.40;1.00
506;DHT22;551;48.524;9.056;2023-03-23T14:39:28;19.40;1.00
506;DHT22;551;48.524;9.056;2023-03-23T14:41:55;19.40;1.00
506;DHT22;551;48.524;9.056;2023-03-23T14:44:33;19.30;1.00
506;DHT22;551;48.524;9.056;2023-03-23T14:47:03;19.20;1.00
506;DHT22;551;48.524;9.056;2023-03-23T14:49:38;19.30;1.00
506;DHT22;551;48.524;9.056;2023-03-23T14:52:16;19.40;1.00
506;DHT22;551;48.524;9.056;2023-03-23T14:54:46;19.50;1.00
506;DHT22;551;48.524;9.056;2023-03-23T14:59:47;19.40;1.00
506;DHT22;551;48.524;9.056;2023-03-23T15:04:53;19.20;1.00
506;DHT22;551;48.524;9.056;2023-03-23T15:07:20;19.10;1.00
506;DHT22;551;48.524;9.056;2023-03-23T15:09:47;19.00;1.00
506;DHT22;551;48.524;9.056;2023-03-23T15:12:21;19.00;1.00
506;DHT22;551;48.524;9.056;2023-03-23T15:14:51;19.00;1.00
506;DHT22;551;48.524;9.056;2023-03-23T15:17:20;19.10;1.00
506;DHT22;551;48.524;9.056;2023-03-23T15:19:47;19.10;1.00
506;DHT22;551;48.524;9.056;2023-03-23T15:22:24;19.10;1.00
506;DHT22;551;48.524;9.056;2023-03-23T15:24:52;19.10;1.00
506;DHT22;551;48.524;9.056;2023-03-23T15:27:29;19.00;1.00
506;DHT22;551;48.524;9.056;2023-03-23T15:29:57;19.00;1.00
506;DHT22;551;48.524;9.056;2023-03-23T15:32:26;18.90;1.00
506;DHT22;551;48.524;9.056;2023-03-23T15:34:53;18.90;1.00
506;DHT22;551;48.524;9.056;2023-03-23T15:39:47;18.80;1.00
506;DHT22;551;48.524;9.056;2023-03-23T15:42:28;18.80;1.00
506;DHT22;551;48.524;9.056;2023-03-23T15:50:33;18.70;1.00
506;DHT22;551;48.524;9.056;2023-03-23T15:53:00;18.70;1.00
506;DHT22;551;48.524;9.056;2023-03-23T15:55:36;18.60;1.00
506;DHT22;551;48.524;9.056;2023-03-23T15:58:09;18.60;1.00
506;DHT22;551;48.524;9.056;2023-03-23T16:00:35;18.50;1.00
506;DHT22;551;48.524;9.056;2023-03-23T16:03:04;18.50;1.00
506;DHT22;551;48.524;9.056;2023-03-23T16:05:30;18.40;1.00
506;DHT22;551;48.524;9.056;2023-03-23T16:07:56;18.40;1.00
506;DHT22;551;48.524;9.056;2023-03-23T16:10:24;18.40;1.00
506;DHT22;551;48.524;9.056;2023-03-23T16:12:49;18.40;1.00
506;DHT22;551;48.524;9.056;2023-03-23T16:15:16;18.30;1.00
506;DHT22;551;48.524;9.056;2023-03-23T16:17:42;18.30;1.00
506;DHT22;551;48.524;9.056;2023-03-23T16:20:20;18.40;1.00
506;DHT22;551;48.524;9.056;2023-03-23T16:22:46;18.50;1.00
506;DHT22;551;48.524;9.056;2023-03-23T16:25:13;18.40;1.00
506;DHT22;551;48.524;9.056;2023-03-23T16:27:39;18.40;1.00
506;DHT22;551;48.524;9.056;2023-03-23T16:30:27;18.40;1.00
506;DHT22;551;48.524;9.056;2023-03-23T16:32:53;18.50;1.00
506;DHT22;551;48.524;9.056;2023-03-23T16:35:19;18.40;1.00
506;DHT22;551;48.524;9.056;2023-03-23T16:37:53;18.30;1.00
506;DHT22;551;48.524;9.056;2023-03-23T16:40:20;18.40;1.00
506;DHT22;551;48.524;9.056;2023-03-23T16:42:46;18.30;1.00
506;DHT22;551;48.524;9.056;2023-03-23T16:45:13;18.30;1.00
506;DHT22;551;48.524;9.056;2023-03-23T16:47:39;18.30;1.00
506;DHT22;551;48.524;9.056;2023-03-23T16:50:07;18.30;1.00
506;DHT22;551;48.524;9.056;2023-03-23T16:52:34;18.20;1.00
506;DHT22;551;48.524;9.056;2023-03-23T16:54:59;18.20;1.00
506;DHT22;551;48.524;9.056;2023-03-23T16:57:25;18.20;1.00
506;DHT22;551;48.524;9.056;2023-03-23T16:59:51;18.10;1.00
506;DHT22;551;48.524;9.056;2023-03-23T17:02:17;18.10;1.00
506;DHT22;551;48.524;9.056;2023-03-23T17:04:43;18.20;1.00
506;DHT22;551;48.524;9.056;2023-03-23T17:07:10;18.10;1.00
506;DHT22;551;48.524;9.056;2023-03-23T17:09:35;18.00;1.00
506;DHT22;551;48.524;9.056;2023-03-23T17:12:01;18.00;1.00
506;DHT22;551;48.524;9.056;2023-03-23T17:14:26;18.00;1.00
506;DHT22;551;48.524;9.056;2023-03-23T17:16:52;17.90;1.00
506;DHT22;551;48.524;9.056;2023-03-23T17:19:17;17.80;1.00
506;DHT22;551;48.524;9.056;2023-03-23T17:21:43;17.80;1.00
506;DHT22;551;48.524;9.056;2023-03-23T17:24:09;17.80;1.00
506;DHT22;551;48.524;9.056;2023-03-23T17:26:35;17.70;1.00
506;DHT22;551;48.524;9.056;2023-03-23T17:29:01;17.80;1.00
506;DHT22;551;48.524;9.056;2023-03-23T17:31:27;17.70;1.00
506;DHT22;551;48.524;9.056;2023-03-23T17:33:52;17.70;1.00
506;DHT22;551;48.524;9.056;2023-03-23T17:36:18;17.70;1.00
506;DHT22;551;48.524;9.056;2023-03-23T17:38:44;17.60;1.00
506;DHT22;551;48.524;9.056;2023-03-23T17:41:10;17.50;1.00
506;DHT22;551;48.524;9.056;2023-03-23T17:43:36;17.50;1.00
506;DHT22;551;48.524;9.056;2023-03-23T17:46:05;17.50;1.00
506;DHT22;551;48.524;9.056;2023-03-23T17:48:31;17.50;1.00
506;DHT22;551;48.524;9.056;2023-03-23T17:50:57;17.50;1.00
506;DHT22;551;48.524;9.056;2023-03-23T17:53:27;17.40;1.00
506;DHT22;551;48.524;9.056;2023-03-23T17:55:54;17.40;1.00
506;DHT22;551;48.524;9.056;2023-03-23T17:58:23;17.30;1.00
506;DHT22;551;48.524;9.056;2023-03-23T18:00:50;17.40;1.00
506;DHT22;551;48.524;9.056;2023-03-23T18:03:16;17.30;1.00
506;DHT22;551;48.524;9.056;2023-03-23T18:05:42;17.20;1.00
506;DHT22;551;48.524;9.056;2023-03-23T18:08:08;17.10;1.00
506;DHT22;551;48.524;9.056;2023-03-23T18:10:35;17.10;1.00
506;DHT22;551;48.524;9.056;2023-03-23T18:13:02;17.10;1.00
506;DHT22;551;48.524;9.056;2023-03-23T18:15:28;17.10;1.00
506;DHT22;551;48.524;9.056;2023-03-23T18:17:54;17.10;1.00
506;DHT22;551;48.524;9.056;2023-03-23T18:20:20;17.00;1.00
506;DHT22;551;48.524;9.056;2023-03-23T18:22:48;17.00;1.00
506;DHT22;551;48.524;9.056;2023-03-23T18:25:14;17.00;1.00
506;DHT22;551;48.524;9.056;2023-03-23T18:27:40;17.00;1.00
506;DHT22;551;48.524;9.056;2023-03-23T18:30:06;16.90;1.00
506;DHT22;551;48.524;9.056;2023-03-23T18:32:37;16.90;1.00
506;DHT22;551;48.524;9.056;2023-03-23T18:35:04;16.90;1.00
506;DHT22;551;48.524;9.056;2023-03-23T18:37:31;16.90;1.00
506;DHT22;551;48.524;9.056;2023-03-23T18:39:57;16.80;1.00
506;DHT22;551;48.524;9.056;2023-03-23T18:42:23;16.80;1.00
506;DHT22;551;48.524;9.056;2023-03-23T18:44:49;16.80;1.00
506;DHT22;551;48.524;9.056;2023-03-23T18:47:14;16.80;1.00
506;DHT22;551;48.524;9.056;2023-03-23T18:49:40;16.80;1.00
506;DHT22;551;48.524;9.056;2023-03-23T18:52:06;16.80;1.00
506;DHT22;551;48.524;9.056;2023-03-23T18:54:31;16.80;1.00
506;DHT22;551;48.524;9.056;2023-03-23T18:57:02;16.80;1.00
506;DHT22;551;48.524;9.056;2023-03-23T18:59:28;16.70;1.00
506;DHT22;551;48.524;9.056;2023-03-23T19:01:56;16.70;1.00
506;DHT22;551;48.524;9.056;2023-03-23T19:04:21;16.70;1.00
506;DHT22;551;48.524;9.056;2023-03-23T19:06:50;16.70;1.00
506;DHT22;551;48.524;9.056;2023-03-23T19:09:16;16.60;1.00
506;DHT22;551;48.524;9.056;2023-03-23T19:11:44;16.60;1.00